createdAt,value
2018-06-04T00:02:19.526Z,14.93
2018-06-04T00:04:47.552Z,14.77
2018-06-04T00:07:14.819Z,15.60
2018-06-04T00:09:42.070Z,15.17
2018-06-04T00:12:09.338Z,14.03
2018-06-04T00:14:36.598Z,13.50
2018-06-04T00:17:03.872Z,14.47
2018-06-04T00:19:31.118Z,15.23
2018-06-04T00:21:58.364Z,14.53
2018-06-04T00:24:25.642Z,14.67
2018-06-04T00:26:52.966Z,13.60
2018-06-04T00:29:20.187Z,13.03
2018-06-04T00:31:48.262Z,12.80
2018-06-04T00:34:15.579Z,13.33
2018-06-04T00:36:42.862Z,12.97
2018-06-04T00:39:10.180Z,13.33
2018-06-04T00:41:37.508Z,13.03
2018-06-04T00:44:04.742Z,14.57
2018-06-04T00:46:31.951Z,18.23
2018-06-04T00:48:59.357Z,16.67
2018-06-04T00:51:26.612Z,15.07
2018-06-04T00:53:53.870Z,14.90
2018-06-04T00:56:23.068Z,15.33
2018-06-04T00:58:50.363Z,15.67
2018-06-04T01:01:17.614Z,14.23
2018-06-04T01:03:44.888Z,14.50
2018-06-04T01:06:12.154Z,14.67
2018-06-04T01:08:39.467Z,14.43
2018-06-04T01:11:07.589Z,13.60
2018-06-04T01:13:34.851Z,13.50
2018-06-04T01:16:02.105Z,13.63
2018-06-04T01:18:29.363Z,12.63
2018-06-04T01:20:56.791Z,13.83
2018-06-04T01:23:24.099Z,13.97
2018-06-04T01:25:51.445Z,13.50
2018-06-04T01:28:18.709Z,13.30
2018-06-04T01:30:45.957Z,13.33
2018-06-04T01:33:13.189Z,13.50
2018-06-04T01:35:40.450Z,13.90
2018-06-04T01:38:07.691Z,14.40
2018-06-04T01:40:35.000Z,13.70
2018-06-04T01:43:02.252Z,13.83
2018-06-04T01:45:29.540Z,13.20
2018-06-04T01:47:56.844Z,14.60
2018-06-04T01:50:24.089Z,12.80
2018-06-04T01:52:51.380Z,12.67
2018-06-04T01:55:18.664Z,13.60
2018-06-04T01:57:45.925Z,12.83
2018-06-04T02:00:13.213Z,12.20
2018-06-04T02:02:40.475Z,12.37
2018-06-04T02:05:07.702Z,11.17
2018-06-04T02:07:34.981Z,11.90
2018-06-04T02:10:02.305Z,11.50
2018-06-04T02:12:29.576Z,10.77
2018-06-04T02:14:56.829Z,12.17
2018-06-04T02:17:24.086Z,11.27
2018-06-04T02:19:51.341Z,11.87
2018-06-04T02:22:18.587Z,12.57
2018-06-04T02:24:45.807Z,13.30
2018-06-04T02:27:13.055Z,15.07
2018-06-04T02:29:40.301Z,15.10
2018-06-04T02:32:07.544Z,15.20
2018-06-04T02:34:34.794Z,14.93
2018-06-04T02:37:02.050Z,14.53
2018-06-04T02:39:29.306Z,15.97
2018-06-04T02:41:56.566Z,17.23
2018-06-04T02:44:23.846Z,15.13
2018-06-04T02:46:51.086Z,15.40
2018-06-04T02:49:18.373Z,13.47
2018-06-04T02:51:45.601Z,14.37
2018-06-04T02:54:12.876Z,13.80
2018-06-04T02:56:40.147Z,14.07
2018-06-04T02:59:07.382Z,14.20
2018-06-04T03:01:34.668Z,14.67
2018-06-04T03:04:01.954Z,14.33
2018-06-04T03:06:29.195Z,15.40
2018-06-04T03:08:56.481Z,13.07
2018-06-04T03:11:23.730Z,14.57
2018-06-04T03:13:50.974Z,13.60
2018-06-04T03:16:18.266Z,13.37
2018-06-04T03:18:45.515Z,14.10
2018-06-04T03:21:12.748Z,14.73
2018-06-04T03:23:39.987Z,15.20
2018-06-04T03:26:07.270Z,14.73
2018-06-04T03:28:34.540Z,14.87
2018-06-04T03:31:01.801Z,13.07
2018-06-04T03:33:29.040Z,13.63
2018-06-04T03:35:56.300Z,13.33
2018-06-04T03:38:23.552Z,14.83
2018-06-04T03:40:51.662Z,25.53
2018-06-04T03:43:18.886Z,24.80
2018-06-04T03:45:46.116Z,24.77
2018-06-04T03:48:13.355Z,24.23
2018-06-04T03:50:40.588Z,29.67
2018-06-04T03:53:07.850Z,28.97
2018-06-04T03:55:35.100Z,28.17
2018-06-04T03:58:02.374Z,25.80
2018-06-04T04:00:29.653Z,26.00
2018-06-04T04:02:56.961Z,24.60
2018-06-04T04:05:24.196Z,29.97
2018-06-04T04:07:51.511Z,26.83
2018-06-04T04:10:18.788Z,29.70
2018-06-04T04:12:46.068Z,26.77
2018-06-04T04:15:13.314Z,28.77
2018-06-04T04:17:40.573Z,21.97
2018-06-04T04:20:07.838Z,21.53
2018-06-04T04:22:35.116Z,25.73
2018-06-04T04:25:02.389Z,23.00
2018-06-04T04:27:29.673Z,23.27
2018-06-04T04:29:56.927Z,19.83
2018-06-04T04:32:24.179Z,20.33
2018-06-04T04:34:51.446Z,21.77
2018-06-04T04:37:18.733Z,21.13
2018-06-04T04:39:46.009Z,23.20
2018-06-04T04:42:13.284Z,22.20
2018-06-04T04:44:40.545Z,24.83
2018-06-04T04:47:07.803Z,24.20
2018-06-04T04:49:35.048Z,24.60
2018-06-04T04:52:02.368Z,26.43
2018-06-04T04:54:29.631Z,24.60
2018-06-04T04:56:56.908Z,25.17
2018-06-04T04:59:24.201Z,23.57
2018-06-04T05:01:51.448Z,21.77
2018-06-04T05:04:18.690Z,20.73
2018-06-04T05:06:45.995Z,19.90
2018-06-04T05:09:13.244Z,19.40
2018-06-04T05:11:40.508Z,22.77
2018-06-04T05:14:08.608Z,23.17
2018-06-04T05:16:35.892Z,21.53
2018-06-04T05:19:03.132Z,21.33
2018-06-04T05:21:30.357Z,22.40
2018-06-04T05:23:57.641Z,23.00
2018-06-04T05:26:24.937Z,21.20
2018-06-04T05:28:52.227Z,24.03
2018-06-04T05:31:19.470Z,25.10
2018-06-04T05:33:46.750Z,21.93
2018-06-04T05:36:14.033Z,22.17
2018-06-04T05:38:41.351Z,22.73
2018-06-04T05:41:08.601Z,22.87
2018-06-04T05:43:35.877Z,22.17
2018-06-04T05:46:03.143Z,22.97
2018-06-04T05:48:30.452Z,25.67
2018-06-04T05:50:57.683Z,27.97
2018-06-04T05:53:24.984Z,27.53
2018-06-04T05:55:52.264Z,25.93
2018-06-04T05:58:19.519Z,27.83
2018-06-04T06:00:46.749Z,26.63
2018-06-04T06:03:13.996Z,25.53
2018-06-04T06:05:41.250Z,23.03
2018-06-04T06:08:08.488Z,27.23
2018-06-04T06:10:37.361Z,26.13
2018-06-04T06:13:04.638Z,28.60
2018-06-04T06:15:31.974Z,26.13
2018-06-04T06:17:59.208Z,24.47
2018-06-04T06:20:26.466Z,22.73
2018-06-04T06:22:53.754Z,21.63
2018-06-04T06:25:21.011Z,25.07
2018-06-04T06:27:48.240Z,25.63
2018-06-04T06:30:15.506Z,25.70
2018-06-04T06:32:42.756Z,26.43
2018-06-04T06:35:10.001Z,26.33
2018-06-04T06:37:37.324Z,24.43
2018-06-04T06:40:04.580Z,24.23
2018-06-04T06:42:31.832Z,28.17
2018-06-04T06:44:59.108Z,25.17
2018-06-04T06:47:26.452Z,28.50
2018-06-04T06:49:53.687Z,26.97
2018-06-04T06:52:20.997Z,25.77
2018-06-04T06:54:48.285Z,24.23
2018-06-04T06:57:15.546Z,25.43
2018-06-04T06:59:42.792Z,24.67
2018-06-04T07:02:10.044Z,23.17
2018-06-04T07:04:37.319Z,26.67
2018-06-04T07:07:04.564Z,26.67
2018-06-04T07:09:31.810Z,23.23
2018-06-04T07:11:59.102Z,25.27
2018-06-04T07:14:26.361Z,25.67
2018-06-04T07:16:53.705Z,22.77
2018-06-04T07:19:20.965Z,24.70
2018-06-04T07:21:48.209Z,26.17
2018-06-04T07:24:15.459Z,24.67
2018-06-04T07:26:42.810Z,24.67
2018-06-04T07:29:10.035Z,28.40
2018-06-04T07:31:37.283Z,23.10
2018-06-04T07:34:04.865Z,25.37
2018-06-04T07:36:32.153Z,24.27
2018-06-04T07:38:59.425Z,27.37
2018-06-04T07:41:26.713Z,21.33
2018-06-04T07:43:54.026Z,25.47
2018-06-04T07:46:21.260Z,28.30
2018-06-04T07:48:48.543Z,23.10
2018-06-04T07:51:15.788Z,20.77
2018-06-04T07:53:43.059Z,21.73
2018-06-04T07:56:10.332Z,23.90
2018-06-04T07:58:37.601Z,23.27
2018-06-04T08:01:04.883Z,21.13
2018-06-04T08:03:32.164Z,22.00
2018-06-04T08:05:59.416Z,22.63
2018-06-04T08:08:26.674Z,20.57
2018-06-04T08:10:53.984Z,21.40
2018-06-04T08:13:21.232Z,19.27
2018-06-04T08:15:48.488Z,18.00
2018-06-04T08:18:15.772Z,20.27
2018-06-04T08:20:43.008Z,18.60
2018-06-04T08:23:11.112Z,21.70
2018-06-04T08:25:38.357Z,20.70
2018-06-04T08:28:05.620Z,20.30
2018-06-04T08:30:32.892Z,20.17
2018-06-04T08:33:00.141Z,17.53
2018-06-04T08:35:27.414Z,20.63
2018-06-04T08:37:54.678Z,18.80
2018-06-04T08:40:21.953Z,17.13
2018-06-04T08:42:49.243Z,16.83
2018-06-04T08:45:16.489Z,16.80
2018-06-04T08:47:43.780Z,18.83
2018-06-04T08:50:11.007Z,17.17
2018-06-04T08:52:38.322Z,16.77
2018-06-04T08:55:05.579Z,16.33
2018-06-04T08:57:35.200Z,15.40
2018-06-04T09:00:02.480Z,16.07
2018-06-04T09:02:29.763Z,17.47
2018-06-04T09:04:57.019Z,17.20
2018-06-04T09:07:24.301Z,15.53
2018-06-04T09:09:51.569Z,19.27
2018-06-04T09:12:18.843Z,17.90
2018-06-04T09:14:46.069Z,14.73
2018-06-04T09:17:13.315Z,16.10
2018-06-04T09:19:40.605Z,16.00
2018-06-04T09:22:07.942Z,16.23
2018-06-04T09:24:35.185Z,16.10
2018-06-04T09:27:02.428Z,17.37
2018-06-04T09:29:29.733Z,19.73
2018-06-04T09:31:57.016Z,14.47
2018-06-04T09:34:24.300Z,14.07
2018-06-04T09:36:51.568Z,15.03
2018-06-04T09:39:20.495Z,13.73
2018-06-04T09:41:47.764Z,13.17
2018-06-04T09:44:16.674Z,14.70
2018-06-04T09:46:43.906Z,14.60
2018-06-04T09:49:11.174Z,14.93
2018-06-04T09:51:38.426Z,15.23
2018-06-04T09:54:05.713Z,15.27
2018-06-04T09:56:32.950Z,13.83
2018-06-04T09:59:00.227Z,13.50
2018-06-04T10:01:27.478Z,13.77
2018-06-04T10:03:54.750Z,11.93
2018-06-04T10:06:22.050Z,12.83
2018-06-04T10:08:49.344Z,13.67
2018-06-04T10:11:16.740Z,16.07
2018-06-04T10:13:43.999Z,11.60
2018-06-04T10:16:11.275Z,13.63
2018-06-04T10:18:38.526Z,13.73
2018-06-04T10:21:05.775Z,15.93
2018-06-04T10:23:33.061Z,14.17
2018-06-04T10:26:00.306Z,15.97
2018-06-04T10:28:27.535Z,16.97
2018-06-04T10:30:54.855Z,17.20
2018-06-04T10:33:22.125Z,12.13
2018-06-04T10:35:49.405Z,11.73
2018-06-04T10:38:16.647Z,9.97
2018-06-04T10:40:44.709Z,9.17
2018-06-04T10:43:11.996Z,12.00
2018-06-04T10:45:39.261Z,13.40
2018-06-04T10:48:07.268Z,12.37
2018-06-04T10:50:34.572Z,10.80
2018-06-04T10:53:01.874Z,11.97
2018-06-04T10:55:29.130Z,11.23
2018-06-04T10:57:56.446Z,9.87
2018-06-04T11:00:23.782Z,11.20
2018-06-04T11:02:51.039Z,10.10
2018-06-04T11:05:19.172Z,9.87
2018-06-04T11:07:46.437Z,11.57
2018-06-04T11:10:13.724Z,8.47
2018-06-04T11:12:40.995Z,8.03
2018-06-04T11:15:08.245Z,8.47
2018-06-04T11:17:35.492Z,8.13
2018-06-04T11:20:02.778Z,6.33
2018-06-04T11:22:30.012Z,8.23
2018-06-04T11:24:57.263Z,7.20
2018-06-04T11:27:24.502Z,7.15
2018-06-04T11:29:51.776Z,7.92
2018-06-04T11:32:19.041Z,8.25
2018-06-04T11:34:46.324Z,8.63
2018-06-04T11:37:13.618Z,8.60
2018-06-04T11:39:40.900Z,9.33
2018-06-04T11:42:08.921Z,7.20
2018-06-04T11:44:36.183Z,7.27
2018-06-04T11:47:03.519Z,6.83
2018-06-04T11:49:30.791Z,6.83
2018-06-04T11:51:58.029Z,6.70
2018-06-04T11:54:25.285Z,7.57
2018-06-04T11:56:52.583Z,5.63
2018-06-04T11:59:19.851Z,6.53
2018-06-04T12:01:47.111Z,5.70
2018-06-04T12:04:14.347Z,6.12
2018-06-04T12:06:41.641Z,10.23
2018-06-04T12:09:08.867Z,8.15
2018-06-04T12:11:36.237Z,7.17
2018-06-04T12:14:03.517Z,7.78
2018-06-04T12:16:30.838Z,8.20
2018-06-04T12:18:58.091Z,6.03
2018-06-04T12:21:25.377Z,7.42
2018-06-04T12:23:52.638Z,6.17
2018-06-04T12:26:19.970Z,7.65
2018-06-04T12:28:47.225Z,6.62
2018-06-04T12:31:14.451Z,7.70
2018-06-04T12:33:41.723Z,6.70
2018-06-04T12:36:09.028Z,7.80
2018-06-04T12:38:36.326Z,5.50
2018-06-04T12:41:03.565Z,7.60
2018-06-04T12:43:30.849Z,9.08
2018-06-04T12:45:58.122Z,7.67
2018-06-04T12:48:25.387Z,6.62
2018-06-04T12:50:52.635Z,6.60
2018-06-04T12:53:19.917Z,6.30
2018-06-04T12:55:47.213Z,7.42
2018-06-04T12:58:14.490Z,6.55
2018-06-04T13:00:41.736Z,6.45
2018-06-04T13:03:08.994Z,5.65
2018-06-04T13:05:36.248Z,6.03
2018-06-04T13:08:03.521Z,7.83
2018-06-04T13:10:30.740Z,7.37
2018-06-04T13:12:58.812Z,7.45
2018-06-04T13:15:26.139Z,7.80
2018-06-04T13:17:53.440Z,7.05
2018-06-04T13:20:20.701Z,9.20
2018-06-04T13:22:47.994Z,7.15
2018-06-04T13:25:15.232Z,8.10
2018-06-04T13:27:42.488Z,5.80
2018-06-04T13:30:09.797Z,10.18
2018-06-04T13:32:37.051Z,6.37
2018-06-04T13:35:04.303Z,7.17
2018-06-04T13:37:32.469Z,7.22
2018-06-04T13:39:59.687Z,6.17
2018-06-04T13:42:27.005Z,7.10
2018-06-04T13:44:54.319Z,7.83
2018-06-04T13:47:21.601Z,7.05
2018-06-04T13:49:48.937Z,6.87
2018-06-04T13:52:16.165Z,7.28
2018-06-04T13:54:43.454Z,9.43
2018-06-04T13:57:10.712Z,7.12
2018-06-04T13:59:38.020Z,7.42
2018-06-04T14:02:05.404Z,7.92
2018-06-04T14:04:32.649Z,8.38
2018-06-04T14:06:59.895Z,7.95
2018-06-04T14:09:27.165Z,7.35
2018-06-04T14:11:54.568Z,8.60
2018-06-04T14:14:21.788Z,9.25
2018-06-04T14:16:49.053Z,6.75
2018-06-04T14:19:16.281Z,6.75
2018-06-04T14:21:43.536Z,6.70
2018-06-04T14:24:10.792Z,7.72
2018-06-04T14:26:38.024Z,6.78
2018-06-04T14:29:05.308Z,8.23
2018-06-04T14:31:32.570Z,8.08
2018-06-04T14:33:59.816Z,7.15
2018-06-04T14:36:27.096Z,6.58
2018-06-04T14:38:54.362Z,9.33
2018-06-04T14:41:21.651Z,9.18
2018-06-04T14:43:48.896Z,8.40
2018-06-04T14:46:16.193Z,8.23
2018-06-04T14:48:43.452Z,7.00
2018-06-04T14:51:10.706Z,9.08
2018-06-04T14:53:37.998Z,11.33
2018-06-04T14:56:05.226Z,10.70
2018-06-04T14:58:32.469Z,9.73
2018-06-04T15:00:59.715Z,9.10
2018-06-04T15:03:26.942Z,9.73
2018-06-04T15:05:54.238Z,9.85
2018-06-04T15:08:21.481Z,7.35
2018-06-04T15:10:48.729Z,10.65
2018-06-04T15:13:15.985Z,9.05
2018-06-04T15:15:43.229Z,8.50
2018-06-04T15:18:10.499Z,8.28
2018-06-04T15:20:37.816Z,9.98
2018-06-04T15:23:05.075Z,8.35
2018-06-04T15:25:32.353Z,10.43
2018-06-04T15:27:59.713Z,9.88
2018-06-04T15:30:27.035Z,8.58
2018-06-04T15:32:54.354Z,8.48
2018-06-04T15:35:21.672Z,7.62
2018-06-04T15:37:48.990Z,9.70
2018-06-04T15:40:16.197Z,7.22
2018-06-04T15:42:43.566Z,8.83
2018-06-04T15:45:10.823Z,8.00
2018-06-04T15:47:38.112Z,7.35
2018-06-04T15:50:05.381Z,9.05
2018-06-04T15:52:32.650Z,10.45
2018-06-04T15:54:59.922Z,7.40
2018-06-04T15:57:27.193Z,7.15
2018-06-04T15:59:54.471Z,7.25
2018-06-04T16:02:21.739Z,7.40
2018-06-04T16:04:48.996Z,7.92
2018-06-04T16:07:16.223Z,8.30
2018-06-04T16:09:43.486Z,7.92
2018-06-04T16:12:10.764Z,7.83
2018-06-04T16:14:38.054Z,5.45
2018-06-04T16:17:05.314Z,7.10
2018-06-04T16:19:32.584Z,6.17
2018-06-04T16:21:59.955Z,7.08
2018-06-04T16:24:27.206Z,6.35
2018-06-04T16:26:54.450Z,6.05
2018-06-04T16:29:21.760Z,6.33
2018-06-04T16:31:49.845Z,5.97
2018-06-04T16:34:17.108Z,6.15
2018-06-04T16:36:44.544Z,6.87
2018-06-04T16:39:11.801Z,6.70
2018-06-04T16:41:39.101Z,7.20
2018-06-04T16:44:06.346Z,6.37
2018-06-04T16:46:33.641Z,6.40
2018-06-04T16:49:00.895Z,7.47
2018-06-04T16:51:28.173Z,6.80
2018-06-04T16:53:55.436Z,6.70
2018-06-04T16:56:22.730Z,6.60
2018-06-04T16:58:50.003Z,6.15
2018-06-04T17:01:17.298Z,6.70
2018-06-04T17:03:44.591Z,6.05
2018-06-04T17:06:11.871Z,6.33
2018-06-04T17:08:39.152Z,6.17
2018-06-04T17:11:06.614Z,6.78
2018-06-04T17:13:33.926Z,6.05
2018-06-04T17:16:01.226Z,7.25
2018-06-04T17:18:28.596Z,6.92
2018-06-04T17:20:55.877Z,7.05
2018-06-04T17:23:23.152Z,6.78
2018-06-04T17:25:50.448Z,7.80
2018-06-04T17:28:17.807Z,7.57
2018-06-04T17:30:45.295Z,8.78
2018-06-04T17:33:12.612Z,9.10
2018-06-04T17:35:39.951Z,8.17
2018-06-04T17:38:07.286Z,8.10
2018-06-04T17:40:34.574Z,8.67
2018-06-04T17:43:01.864Z,8.93
2018-06-04T17:45:29.193Z,8.23
2018-06-04T17:47:56.548Z,8.40
2018-06-04T17:50:23.906Z,8.43
2018-06-04T17:52:54.833Z,9.30
2018-06-04T17:55:22.138Z,8.80
2018-06-04T17:57:49.536Z,8.20
2018-06-04T18:00:16.922Z,7.47
2018-06-04T18:02:44.255Z,8.33
2018-06-04T18:05:11.563Z,6.57
2018-06-04T18:07:38.862Z,7.20
2018-06-04T18:10:06.220Z,6.97
2018-06-04T18:12:33.809Z,7.20
2018-06-04T18:15:01.185Z,7.70
2018-06-04T18:17:28.499Z,7.30
2018-06-04T18:19:55.809Z,6.67
2018-06-04T18:22:23.167Z,7.90
2018-06-04T18:24:50.985Z,7.50
2018-06-04T18:27:18.340Z,6.37
2018-06-04T18:29:45.957Z,7.17
2018-06-04T18:32:13.311Z,7.10
2018-06-04T18:34:40.960Z,7.07
2018-06-04T18:37:08.268Z,6.70
2018-06-04T18:39:35.585Z,7.27
2018-06-04T18:42:02.949Z,6.83
2018-06-04T18:44:30.525Z,7.50
2018-06-04T18:46:57.856Z,6.80
2018-06-04T18:49:25.161Z,6.03
2018-06-04T18:51:53.654Z,6.70
2018-06-04T18:54:21.063Z,6.93
2018-06-04T18:56:48.401Z,7.57
2018-06-04T18:59:16.881Z,6.90
2018-06-04T19:01:44.226Z,7.53
2018-06-04T19:04:11.677Z,6.47
2018-06-04T19:06:39.990Z,7.07
2018-06-04T19:09:08.618Z,7.27
2018-06-04T19:11:36.117Z,7.10
2018-06-04T19:14:05.702Z,10.13
2018-06-04T19:16:33.194Z,7.03
2018-06-04T19:19:00.880Z,7.77
2018-06-04T19:21:28.273Z,7.57
2018-06-04T19:23:55.660Z,9.33
2018-06-04T19:26:23.666Z,9.20
2018-06-04T19:28:51.845Z,8.60
2018-06-04T19:31:19.628Z,8.50
2018-06-04T19:33:47.013Z,9.30
2018-06-04T19:36:14.357Z,9.37
2018-06-04T19:38:41.813Z,9.20
2018-06-04T19:41:09.146Z,9.20
2018-06-04T19:43:36.847Z,8.83
2018-06-04T19:46:05.115Z,9.93
2018-06-04T19:48:32.453Z,9.73
2018-06-04T19:51:00.871Z,9.27
2018-06-04T19:53:28.148Z,9.60
2018-06-04T19:55:55.819Z,9.83
2018-06-04T19:58:24.208Z,10.03
2018-06-04T20:00:51.536Z,8.63
2018-06-04T20:03:19.001Z,9.30
2018-06-04T20:05:46.320Z,8.77
2018-06-04T20:08:13.817Z,9.00
2018-06-04T20:10:41.340Z,9.80
2018-06-04T20:13:09.722Z,9.43
2018-06-04T20:15:37.461Z,10.93
2018-06-04T20:18:04.840Z,10.23
2018-06-04T20:20:33.321Z,10.10
2018-06-04T20:23:00.736Z,10.60
2018-06-04T20:25:28.576Z,11.20
2018-06-04T20:27:55.951Z,10.30
2018-06-04T20:30:23.255Z,10.30
2018-06-04T20:35:31.024Z,10.90
2018-06-04T20:37:58.360Z,10.90
2018-06-04T20:40:25.678Z,10.83
2018-06-04T20:42:53.031Z,11.33
2018-06-04T20:45:20.366Z,11.00
2018-06-04T20:47:48.041Z,10.07
2018-06-04T20:50:15.901Z,11.50
2018-06-04T20:52:43.193Z,11.17
2018-06-04T20:55:10.515Z,11.87
2018-06-04T20:57:37.882Z,11.47
2018-06-04T21:00:05.247Z,11.37
2018-06-04T21:02:32.591Z,11.60
2018-06-04T21:04:59.937Z,12.10
2018-06-04T21:07:27.283Z,12.57
2018-06-04T21:09:54.560Z,11.80
2018-06-04T21:12:21.816Z,12.77
2018-06-04T21:14:49.098Z,13.30
2018-06-04T21:17:16.375Z,12.70
2018-06-04T21:19:43.665Z,12.90
2018-06-04T21:22:10.994Z,14.07
2018-06-04T21:24:38.278Z,14.37
2018-06-04T21:27:05.609Z,13.83
2018-06-04T21:29:32.922Z,14.93
2018-06-04T21:32:00.187Z,14.03
2018-06-04T21:34:27.491Z,14.33
2018-06-04T21:36:54.821Z,15.00
2018-06-04T21:39:22.096Z,14.90
2018-06-04T21:41:49.378Z,16.60
2018-06-04T21:44:16.654Z,16.43
2018-06-04T21:46:43.936Z,15.47
2018-06-04T21:49:15.774Z,17.77
2018-06-04T21:51:43.064Z,16.37
2018-06-04T21:54:10.314Z,17.83
2018-06-04T21:56:37.675Z,17.67
2018-06-04T21:59:05.228Z,16.63
2018-06-04T22:01:32.493Z,15.90
2018-06-04T22:03:59.762Z,16.03
2018-06-04T22:06:27.175Z,16.00
2018-06-04T22:08:54.576Z,15.60
2018-06-04T22:11:21.844Z,15.00
2018-06-04T22:13:49.076Z,15.57
2018-06-04T22:16:16.351Z,16.70
2018-06-04T22:18:44.238Z,17.97
2018-06-04T22:21:11.512Z,15.33
2018-06-04T22:23:38.895Z,16.73
2018-06-04T22:26:06.206Z,15.70
2018-06-04T22:28:33.449Z,14.50
2018-06-04T22:31:00.723Z,14.67
2018-06-04T22:33:28.106Z,15.37
2018-06-04T22:35:55.385Z,14.73
2018-06-04T22:38:22.638Z,13.73
2018-06-04T22:40:49.915Z,15.37
2018-06-04T22:43:17.187Z,16.27
2018-06-04T22:45:44.435Z,15.97
2018-06-04T22:48:11.725Z,14.67
2018-06-04T22:50:38.998Z,15.57
2018-06-04T22:53:06.258Z,15.43
2018-06-04T22:55:33.519Z,14.93
2018-06-04T22:58:00.744Z,16.43
2018-06-04T23:00:32.110Z,15.20
2018-06-04T23:02:59.344Z,16.07
2018-06-04T23:05:26.624Z,16.37
2018-06-04T23:07:53.886Z,16.70
2018-06-04T23:10:21.141Z,18.97
2018-06-04T23:12:48.414Z,16.70
2018-06-04T23:15:15.680Z,17.90
2018-06-04T23:17:42.949Z,18.60
2018-06-04T23:20:10.252Z,16.77
2018-06-04T23:22:37.495Z,15.57
2018-06-04T23:25:04.773Z,17.17
2018-06-04T23:27:31.992Z,17.40
2018-06-04T23:29:59.267Z,17.43
2018-06-04T23:32:26.619Z,17.00
2018-06-04T23:34:53.855Z,16.83
2018-06-04T23:37:21.103Z,17.07
2018-06-04T23:39:48.385Z,17.10
2018-06-04T23:42:15.670Z,16.50
2018-06-04T23:44:42.912Z,16.23
2018-06-04T23:47:10.185Z,15.80
2018-06-04T23:49:37.426Z,17.13
2018-06-04T23:52:04.679Z,17.43
2018-06-04T23:54:31.959Z,17.00
2018-06-04T23:56:59.229Z,20.00
2018-06-04T23:59:26.492Z,16.03
